createdAt,value
2023-02-06T00:02:06.981Z,102093.56
2023-02-06T00:07:08.808Z,102096.00
2023-02-06T00:12:10.492Z,102089.75
2023-02-06T00:17:12.097Z,102090.91
2023-02-06T00:22:14.326Z,102095.53
2023-02-06T00:27:16.148Z,102104.16
2023-02-06T00:32:18.047Z,102094.31
2023-02-06T00:37:19.746Z,102095.84
2023-02-06T00:42:21.366Z,102100.19
2023-02-06T00:47:23.102Z,102105.81
2023-02-06T00:52:25.473Z,102098.84
2023-02-06T00:57:27.301Z,102112.16
2023-02-06T01:02:28.938Z,102098.50
2023-02-06T01:07:30.792Z,102097.25
2023-02-06T01:12:34.960Z,102102.53
2023-02-06T01:17:37.204Z,102123.56
2023-02-06T01:22:39.900Z,102106.22
2023-02-06T01:27:41.545Z,102123.03
2023-02-06T01:32:43.545Z,102122.69
2023-02-06T01:37:45.179Z,102107.25
2023-02-06T01:42:46.882Z,102110.38
2023-02-06T01:47:52.388Z,102098.47
2023-02-06T01:52:54.941Z,102090.38
2023-02-06T01:57:57.208Z,102076.50
2023-02-06T02:02:58.967Z,102066.75
2023-02-06T02:08:14.785Z,102065.09
2023-02-06T02:13:17.228Z,102062.13
2023-02-06T02:18:38.167Z,102065.31
2023-02-06T02:23:48.016Z,102071.91
2023-02-06T02:28:53.550Z,102081.72
2023-02-06T02:34:24.525Z,102073.81
2023-02-06T02:39:53.364Z,102054.41
2023-02-06T02:45:06.242Z,102061.69
2023-02-06T02:50:08.507Z,102058.16
2023-02-06T02:55:20.766Z,102061.16
2023-02-06T03:00:25.605Z,102063.13
2023-02-06T03:05:29.524Z,102071.47
2023-02-06T03:10:59.227Z,102069.16
2023-02-06T03:16:17.203Z,102079.31
2023-02-06T03:21:21.838Z,102074.00
2023-02-06T03:26:26.883Z,102073.47
2023-02-06T03:31:38.956Z,102082.41
2023-02-06T03:36:41.121Z,102095.41
2023-02-06T03:41:45.347Z,102089.81
2023-02-06T03:46:49.356Z,102102.25
2023-02-06T03:52:00.174Z,102083.38
2023-02-06T03:57:05.713Z,102086.47
2023-02-06T04:02:08.112Z,102090.13
2023-02-06T04:07:30.919Z,102078.72
2023-02-06T04:12:32.757Z,102083.38
2023-02-06T04:17:49.640Z,102079.03
2023-02-06T04:22:55.605Z,102082.50
2023-02-06T04:27:57.367Z,102091.38
2023-02-06T04:32:59.032Z,102087.50
2023-02-06T04:38:00.839Z,102094.00
2023-02-06T04:43:02.485Z,102101.88
2023-02-06T04:48:04.090Z,102096.31
2023-02-06T04:53:05.897Z,102095.09
2023-02-06T04:58:07.563Z,102085.53
2023-02-06T05:03:09.184Z,102080.69
2023-02-06T05:08:10.822Z,102077.75
2023-02-06T05:13:12.714Z,102084.81
2023-02-06T05:18:15.180Z,102081.41
2023-02-06T05:23:16.869Z,102082.03
2023-02-06T05:28:18.928Z,102091.13
2023-02-06T05:33:20.783Z,102083.00
2023-02-06T05:38:22.485Z,102076.03
2023-02-06T05:43:24.624Z,102094.25
2023-02-06T05:48:28.786Z,102086.63
2023-02-06T05:53:30.423Z,102076.16
2023-02-06T05:58:32.289Z,102073.88
2023-02-06T06:03:34.135Z,102083.94
2023-02-06T06:08:36.251Z,102083.72
2023-02-06T06:13:37.888Z,102080.94
2023-02-06T06:18:39.499Z,102078.63
2023-02-06T06:23:41.145Z,102078.22
2023-02-06T06:28:42.771Z,102078.31
2023-02-06T06:33:45.147Z,102090.59
2023-02-06T06:38:46.759Z,102091.94
2023-02-06T06:43:50.089Z,102101.03
2023-02-06T06:48:53.061Z,102091.53
2023-02-06T06:53:55.090Z,102085.19
2023-02-06T06:58:56.818Z,102083.34
2023-02-06T07:04:00.130Z,102084.16
2023-02-06T07:09:01.911Z,102075.41
2023-02-06T07:14:04.663Z,102081.94
2023-02-06T07:19:07.527Z,102074.16
2023-02-06T07:24:09.148Z,102086.53
2023-02-06T07:29:10.765Z,102082.72
2023-02-06T07:34:12.806Z,102086.09
2023-02-06T07:39:14.591Z,102075.44
2023-02-06T07:44:16.508Z,102084.78
2023-02-06T07:49:18.252Z,102096.06
2023-02-06T07:54:20.884Z,102096.50
2023-02-06T07:59:23.543Z,102102.81
2023-02-06T08:04:25.223Z,102102.88
2023-02-06T08:09:27.164Z,102098.22
2023-02-06T08:14:29.106Z,102102.00
2023-02-06T08:19:30.672Z,102092.31
2023-02-06T08:24:32.981Z,102096.53
2023-02-06T08:29:42.279Z,102106.56
2023-02-06T08:34:44.554Z,102110.81
2023-02-06T08:39:46.220Z,102112.28
2023-02-06T08:44:48.216Z,102125.47
2023-02-06T08:49:50.996Z,102127.34
2023-02-06T08:54:52.969Z,102148.25
2023-02-06T08:59:54.605Z,102142.19
2023-02-06T09:04:56.432Z,102139.16
2023-02-06T09:09:58.293Z,102145.97
2023-02-06T09:15:00.099Z,102132.56
2023-02-06T09:20:02.159Z,102119.22
2023-02-06T09:25:03.877Z,102130.97
2023-02-06T09:30:06.138Z,102116.63
2023-02-06T09:35:08.004Z,102111.81
2023-02-06T09:40:12.783Z,102134.00
2023-02-06T09:45:21.993Z,102123.38
2023-02-06T09:50:51.551Z,102105.50
2023-02-06T09:56:08.210Z,102107.16
2023-02-06T10:01:22.367Z,102113.97
2023-02-06T10:06:28.753Z,102092.34
2023-02-06T10:11:54.704Z,102087.94
2023-02-06T10:17:01.272Z,102077.31
2023-02-06T10:22:10.023Z,102062.53
2023-02-06T10:27:14.446Z,102056.94
2023-02-06T10:32:22.960Z,102051.88
2023-02-06T10:37:36.796Z,102039.25
2023-02-06T10:42:52.536Z,102031.66
2023-02-06T10:47:56.335Z,102022.06
2023-02-06T10:53:03.845Z,102022.66
2023-02-06T10:58:23.885Z,102001.03
2023-02-06T11:03:32.713Z,102000.56
2023-02-06T11:08:43.790Z,101985.97
2023-02-06T11:13:48.849Z,102004.41
2023-02-06T11:18:52.168Z,101996.09
2023-02-06T11:24:09.963Z,101997.69
2023-02-06T11:29:19.490Z,101995.50
2023-02-06T11:34:23.756Z,101982.16
2023-02-06T11:39:32.291Z,101981.16
2023-02-06T11:44:42.049Z,101982.19
2023-02-06T11:49:43.990Z,101953.63
2023-02-06T11:54:54.402Z,101957.09
2023-02-06T11:59:59.101Z,101955.41
2023-02-06T12:05:16.591Z,101956.19
2023-02-06T12:10:21.679Z,101946.50
2023-02-06T12:15:45.523Z,101948.47
2023-02-06T12:20:56.068Z,101932.53
2023-02-06T12:26:01.693Z,101930.03
2023-02-06T12:31:10.545Z,101939.25
2023-02-06T12:36:20.856Z,101923.78
2023-02-06T12:41:34.419Z,101901.16
2023-02-06T12:46:36.676Z,101893.06
2023-02-06T12:51:40.985Z,101895.22
2023-02-06T12:56:50.243Z,101887.06
2023-02-06T13:02:05.557Z,101869.69
2023-02-06T13:07:11.289Z,101875.44
2023-02-06T13:12:26.192Z,101866.00
2023-02-06T13:17:44.836Z,101861.25
2023-02-06T13:22:49.311Z,101883.09
2023-02-06T13:27:58.868Z,101865.16
2023-02-06T13:33:21.031Z,101859.22
2023-02-06T13:38:22.585Z,101843.63
2023-02-06T13:43:28.375Z,101855.84
2023-02-06T13:48:59.440Z,101855.75
2023-02-06T13:54:19.899Z,101868.13
2023-02-06T13:59:33.655Z,101848.03
2023-02-06T14:04:35.425Z,101860.03
2023-02-06T14:10:10.122Z,101843.31
2023-02-06T14:15:30.695Z,101858.09
2023-02-06T14:20:32.334Z,101860.81
2023-02-06T14:25:40.015Z,101870.59
2023-02-06T14:30:49.804Z,101866.13
2023-02-06T14:36:06.918Z,101872.59
2023-02-06T14:41:09.126Z,101870.25
2023-02-06T14:46:15.796Z,101862.81
2023-02-06T14:51:39.571Z,101863.06
2023-02-06T14:56:41.360Z,101861.56
2023-02-06T15:01:46.524Z,101851.63
2023-02-06T15:06:54.114Z,101857.13
2023-02-06T15:11:58.879Z,101860.59
2023-02-06T15:17:02.554Z,101861.09
2023-02-06T15:22:14.501Z,101867.50
2023-02-06T15:27:28.189Z,101862.03
2023-02-06T15:32:33.940Z,101868.19
2023-02-06T15:37:36.164Z,101861.22
2023-02-06T15:42:38.061Z,101868.66
2023-02-06T15:47:41.651Z,101883.38
2023-02-06T15:52:47.073Z,101892.59
2023-02-06T15:57:49.547Z,101895.34
2023-02-06T16:02:54.194Z,101892.88
2023-02-06T16:07:56.389Z,101910.22
2023-02-06T16:13:01.587Z,101923.59
2023-02-06T16:18:23.503Z,101952.38
2023-02-06T16:24:03.909Z,101945.63
2023-02-06T16:29:08.574Z,101954.31
2023-02-06T16:34:20.575Z,101951.06
2023-02-06T16:39:23.626Z,101971.47
2023-02-06T16:44:36.012Z,101977.69
2023-02-06T16:49:48.171Z,101988.41
2023-02-06T16:54:50.813Z,101995.34
2023-02-06T16:59:56.504Z,101997.63
2023-02-06T17:04:59.096Z,101993.59
2023-02-06T17:10:02.491Z,102003.28
2023-02-06T17:15:06.464Z,101998.41
2023-02-06T17:20:22.916Z,101998.38
2023-02-06T17:25:24.579Z,102005.47
2023-02-06T17:30:29.288Z,102016.50
2023-02-06T17:35:32.193Z,102019.88
2023-02-06T17:40:36.206Z,102030.31
2023-02-06T17:45:39.680Z,102032.41
2023-02-06T17:50:42.243Z,102026.88
2023-02-06T17:56:10.704Z,102032.69
2023-02-06T18:01:14.092Z,102042.84
2023-02-06T18:06:16.996Z,102034.28
2023-02-06T18:11:21.119Z,102039.41
2023-02-06T18:16:26.122Z,102036.50
2023-02-06T18:21:29.423Z,102034.06
2023-02-06T18:26:31.261Z,102030.47
2023-02-06T18:31:35.744Z,102036.69
2023-02-06T18:36:37.702Z,102040.47
2023-02-06T18:41:57.932Z,102044.69
2023-02-06T18:46:59.585Z,102043.22
2023-02-06T18:52:01.608Z,102037.97
2023-02-06T18:57:03.417Z,102044.34
2023-02-06T19:02:05.237Z,102054.50
2023-02-06T19:07:08.729Z,102057.81
2023-02-06T19:12:10.495Z,102060.28
2023-02-06T19:17:12.120Z,102073.00
2023-02-06T19:22:13.817Z,102089.56
2023-02-06T19:27:15.658Z,102094.78
2023-02-06T19:32:17.861Z,102085.03
2023-02-06T19:37:19.587Z,102083.09
2023-02-06T19:42:21.403Z,102092.63
2023-02-06T19:47:23.500Z,102098.75
2023-02-06T19:52:25.136Z,102096.53
2023-02-06T19:57:26.836Z,102093.47
2023-02-06T20:02:28.528Z,102101.00
2023-02-06T20:07:30.694Z,102087.63
2023-02-06T20:12:32.788Z,102097.47
2023-02-06T20:17:34.449Z,102097.09
2023-02-06T20:22:36.380Z,102095.59
2023-02-06T20:27:38.059Z,102094.06
2023-02-06T20:32:39.828Z,102087.56
2023-02-06T20:37:41.464Z,102083.06
2023-02-06T20:42:44.531Z,102083.25
2023-02-06T20:47:46.217Z,102088.88
2023-02-06T20:52:47.880Z,102095.38
2023-02-06T20:57:49.734Z,102101.72
2023-02-06T21:02:53.091Z,102104.13
2023-02-06T21:07:57.341Z,102125.09
2023-02-06T21:12:59.215Z,102139.22
2023-02-06T21:18:00.910Z,102146.19
2023-02-06T21:23:02.833Z,102162.59
2023-02-06T21:28:05.534Z,102159.84
2023-02-06T21:33:07.185Z,102148.25
2023-02-06T21:38:08.869Z,102148.56
2023-02-06T21:43:11.085Z,102153.31
2023-02-06T21:48:12.802Z,102151.25
2023-02-06T21:53:14.412Z,102153.81
2023-02-06T21:58:16.629Z,102140.47
2023-02-06T22:03:18.267Z,102166.06
2023-02-06T22:08:20.059Z,102169.66
2023-02-06T22:13:21.982Z,102170.00
2023-02-06T22:18:23.583Z,102173.59
2023-02-06T22:23:25.271Z,102181.16
2023-02-06T22:28:27.371Z,102179.34
2023-02-06T22:33:28.976Z,102186.66
2023-02-06T22:38:30.596Z,102193.44
2023-02-06T22:43:35.049Z,102201.28
2023-02-06T22:48:37.711Z,102192.78
2023-02-06T22:53:40.293Z,102204.13
2023-02-06T22:58:42.399Z,102217.66
2023-02-06T23:03:44.008Z,102230.97
2023-02-06T23:08:46.031Z,102240.66
2023-02-06T23:13:52.025Z,102248.41
2023-02-06T23:18:53.860Z,102259.13
2023-02-06T23:24:00.766Z,102258.13
2023-02-06T23:29:06.016Z,102260.19
2023-02-06T23:34:07.880Z,102254.31
2023-02-06T23:39:09.835Z,102262.41
2023-02-06T23:44:11.802Z,102262.78
2023-02-06T23:49:13.497Z,102258.97
2023-02-06T23:54:15.136Z,102264.91
2023-02-06T23:59:16.734Z,102264.91
